Latest Weather Observations for Minlaton Airport

IDS60801

Issued at 10:31 am CDT Thursday 29 January 2015 (issued every 30 minutes, with the page automatically refreshed every 10 minutes)

About weather observations | Map of weather stations | Latest weather observations for SA | Other Formats
Station Details ID: 022031 Name: MINLATON AERO Lat: -34.75 Lon: 137.53 Height: 32.0 m
Data from the previous 72 hours. | See also: Recent months at Minlaton Airport
Date/Time
CDT
Temp
°C
App
Temp
°C
Dew
Point
Rel
Hum
%
Delta-T
°C
Wind Press
QNH
hPa
Press
MSL
hPa
Rain
since 9 am
mm
Dir
 
Spd
km/h
Gust
km/h
Spd
kts
Gust
kts
29/10:30am 23.8 19.3 10.1 42 7.5 ESE 24 32 13 17 1017.5 1017.4 0.0
29/10:00am 23.2 18.8 10.3 44 7.1 SE 24 30 13 16 1017.6 1017.5 0.0
29/09:30am 22.5 17.4 10.6 47 6.5 ESE 28 35 15 19 1017.4 1017.3 0.0
29/09:00am 21.4 15.1 10.9 51 5.8 ESE 35 41 19 22 1017.3 1017.2 0.0
29/08:30am 20.3 14.4 11.0 55 5.1 ESE 33 43 18 23 1017.0 1016.9 0.0
29/08:00am 19.2 13.4 11.5 61 4.2 ESE 33 43 18 23 1016.6 1016.5 0.0
29/07:30am 18.0 12.2 11.6 66 3.5 ESE 33 43 18 23 1016.3 1016.2 0.0
29/07:00am 16.9 11.4 11.8 72 2.8 ESE 32 39 17 21 1016.0 1015.9 0.0
29/06:30am 16.5 10.9 11.4 72 2.8 ESE 32 35 17 19 1015.8 1015.7 0.0
29/06:00am 16.4 11.3 11.8 74 2.5 ESE 30 35 16 19 1015.6 1015.5 0.0
29/05:30am 16.5 11.8 12.1 75 2.4 ESE 28 32 15 17 1015.5 1015.4 0.0
29/05:00am 16.7 12.2 12.5 76 2.3 ESE 28 35 15 19 1015.2 1015.1 0.0
29/04:30am 16.5 12.3 13.6 83 1.6 ESE 28 33 15 18 1015.2 1015.1 0.0
29/04:00am 16.2 12.7 14.4 89 1.0 SE 26 32 14 17 1015.3 1015.2 0.0
29/03:30am 14.5 12.0 13.5 94 0.6 SSE 19 20 10 11 1015.7 1015.6 0.0
29/03:00am 14.4 12.2 13.3 93 0.6 SSE 17 19 9 10 1015.9 1015.8 0.0
29/02:30am 15.0 13.6 13.5 91 0.8 S 13 15 7 8 1016.0 1015.9 0.0
29/02:00am 15.5 14.7 13.9 90 0.9 S 11 15 6 8 1016.1 1016.0 0.0
29/01:30am 15.9 14.4 14.1 89 1.0 SSE 15 19 8 10 1016.2 1016.1 0.0
29/01:00am 16.2 14.3 14.2 88 1.1 SSE 17 20 9 11 1016.5 1016.4 0.0
29/12:30am 16.4 14.1 14.2 87 1.3 SSE 19 24 10 13 1016.6 1016.5 0.0
29/12:00am 16.6 14.1 14.1 85 1.4 SSE 20 28 11 15 1016.8 1016.7 0.0
 
Date/Time
CDT
Temp
°C
App
Temp
°C
Dew
Point
Rel
Hum
%
Delta-T
°C
Wind Press
QNH
hPa
Press
MSL
hPa
Rain
since 9 am
mm
Dir
 
Spd
km/h
Gust
km/h
Spd
kts
Gust
kts
28/11:30pm 17.0 12.6 14.1 83 1.7 SSE 30 39 16 21 1016.8 1016.7 0.0
28/11:00pm 17.0 12.2 13.9 82 1.8 SSE 32 43 17 23 1016.9 1016.8 0.0
28/10:30pm 16.9 11.8 13.6 81 1.9 SE 33 44 18 24 1017.0 1016.9 0.0
28/10:00pm 16.8 11.9 13.7 82 1.8 SE 32 41 17 22 1016.9 1016.8 0.0
28/09:30pm 16.7 12.1 13.4 81 1.9 SSE 30 39 16 21 1017.0 1016.9 0.0
28/09:00pm 16.9 11.8 13.2 79 2.1 SSE 32 44 17 24 1016.9 1016.8 0.0
28/08:30pm 17.4 12.0 12.9 75 2.5 SSE 33 44 18 24 1016.9 1016.8 0.0
28/08:00pm 18.3 11.0 11.6 65 3.7 SSE 41 52 22 28 1016.5 1016.4 0.0
28/07:30pm 19.2 12.4 10.5 57 4.7 SSE 37 48 20 26 1016.4 1016.3 0.0
28/07:00pm 19.8 12.5 10.2 54 5.2 SSE 39 48 21 26 1016.0 1015.9 0.0
28/06:30pm 20.8 13.1 10.3 51 5.7 SSE 41 56 22 30 1016.0 1015.9 0.0
28/06:00pm 21.2 13.6 9.1 46 6.4 SSE 39 48 21 26 1016.1 1016.0 0.0
28/05:30pm 22.2 14.9 8.7 42 7.2 SE 37 50 20 27 1016.3 1016.2 0.0
28/05:00pm 22.1 14.2 7.9 40 7.4 SSE 39 52 21 28 1016.2 1016.1 0.0
28/04:30pm 22.8 14.5 7.8 38 7.9 SSE 41 54 22 29 1016.4 1016.3 0.0
28/04:00pm 22.5 14.1 7.5 38 7.8 SSE 41 56 22 30 1016.5 1016.4 0.0
28/03:30pm 22.5 14.5 9.0 42 7.2 SSE 41 54 22 29 1016.8 1016.7 0.0
28/03:00pm 22.5 14.7 8.2 40 7.5 SSE 39 57 21 31 1016.9 1016.8 0.0
28/02:30pm 23.7 16.2 7.8 36 8.4 SE 37 57 20 31 1017.3 1017.2 0.0
28/02:21pm 22.7 15.0 6.9 36 8.1 SE 37 57 20 31 1017.2 1017.1 0.0
28/02:00pm 22.8 15.3 7.8 38 7.9 SSE 37 50 20 27 1017.6 1017.5 0.0
28/01:30pm 22.2 14.1 7.2 38 7.7 SE 39 54 21 29 1017.7 1017.6 0.0
28/01:10pm 22.4 14.1 7.8 39 7.6 SE 41 61 22 33 1017.7 1017.6 0.0
28/01:00pm 22.4 14.1 7.8 39 7.6 SE 41 56 22 30 1017.8 1017.7 0.0
28/12:43pm 22.9 15.8 8.2 39 7.8 SE 35 56 19 30 1017.9 1017.8 0.0
28/12:30pm 22.0 14.5 7.8 40 7.4 SE 37 54 20 29 1018.0 1017.9 0.0
28/12:00pm 21.8 14.2 9.0 44 6.8 SE 39 52 21 28 1018.1 1018.0 0.0
28/11:30am 20.5 13.4 8.2 45 6.4 SE 35 46 19 25 1018.4 1018.3 0.0
28/11:25am 20.5 13.4 8.2 45 6.4 SE 35 54 19 29 1018.5 1018.4 0.0
28/11:00am 19.3 12.2 8.0 48 5.8 SE 35 44 19 24 1018.8 1018.7 0.0
28/10:30am 19.3 12.3 8.3 49 5.7 SE 35 48 19 26 1018.4 1018.3 0.0
28/10:00am 18.2 11.6 8.7 54 4.9 ESE 33 43 18 23 1018.5 1018.4 0.0
28/09:30am 18.1 11.2 8.9 55 4.8 SE 35 48 19 26 1018.5 1018.4 0.0
28/09:00am 17.5 10.5 8.6 56 4.6 SE 35 44 19 24 1018.4 1018.3 0.0
28/08:30am 16.9 9.7 7.8 55 4.6 SE 35 46 19 25 1018.1 1018.0 0.0
28/08:00am 16.6 10.1 8.1 57 4.3 SE 32 39 17 21 1017.9 1017.8 0.0
28/07:30am 15.6 11.5 8.8 64 3.5 SSE 20 28 11 15 1017.7 1017.6 0.0
28/07:00am 12.7 9.1 8.2 74 2.2 SE 17 19 9 10 1017.3 1017.2 0.0
28/06:30am 12.5 8.7 7.6 72 2.4 SE 17 19 9 10 1016.9 1016.8 0.0
28/06:00am 13.3 9.3 8.2 71 2.5 SSE 19 22 10 12 1016.8 1016.7 0.0
28/05:30am 14.2 9.7 8.4 68 2.9 SE 22 28 12 15 1016.5 1016.4 0.0
28/05:00am 14.8 10.7 8.7 67 3.1 SE 20 26 11 14 1016.5 1016.4 0.0
28/04:30am 15.1 10.3 9.0 67 3.1 SE 24 33 13 18 1016.2 1016.1 0.0
28/04:00am 14.9 10.6 9.5 70 2.8 SE 22 28 12 15 1016.3 1016.2 0.0
28/03:30am 14.6 10.9 10.0 74 2.4 SE 20 26 11 14 1016.4 1016.3 0.0
28/03:00am 14.5 9.9 9.7 73 2.5 SE 24 30 13 16 1016.5 1016.4 0.0
28/02:30am 14.7 9.6 9.3 70 2.8 SE 26 32 14 17 1016.9 1016.8 0.0
28/02:00am 14.4 10.0 9.0 70 2.7 SSE 22 28 12 15 1017.4 1017.3 0.0
28/01:30am 14.4 10.7 9.4 72 2.6 SSE 19 24 10 13 1017.9 1017.8 0.0
28/01:00am 14.1 10.2 8.7 70 2.7 SSE 19 24 10 13 1018.1 1018.0 0.0
28/12:30am 14.2 10.3 8.6 69 2.8 SSE 19 24 10 13 1018.3 1018.2 0.0
28/12:00am 15.1 9.1 8.6 65 3.3 SSE 30 39 16 21 1018.2 1018.1 0.0
 
Date/Time
CDT
Temp
°C
App
Temp
°C
Dew
Point
Rel
Hum
%
Delta-T
°C
Wind Press
QNH
hPa
Press
MSL
hPa
Rain
since 9 am
mm
Dir
 
Spd
km/h
Gust
km/h
Spd
kts
Gust
kts
27/11:30pm 15.2 9.9 8.4 64 3.4 SSE 26 33 14 18 1018.3 1018.2 0.0
27/11:00pm 15.5 9.5 8.7 64 3.5 SSE 30 37 16 20 1018.6 1018.5 0.0
27/10:30pm 15.7 10.0 8.2 61 3.8 SSE 28 37 15 20 1018.7 1018.6 0.0
27/10:00pm 16.4 9.8 8.4 59 4.1 SSE 33 43 18 23 1018.5 1018.4 0.0
27/09:30pm 16.9 9.9 8.6 58 4.3 SSE 35 48 19 26 1018.3 1018.2 0.0
27/09:00pm 17.0 10.6 9.4 61 4.0 SSE 33 43 18 23 1018.2 1018.1 0.0
27/08:30pm 16.7 9.1 7.6 55 4.6 SSE 37 46 20 25 1017.7 1017.6 0.0
27/08:00pm 17.3 10.1 9.0 58 4.3 SE 37 48 20 26 1017.6 1017.5 0.0
27/07:30pm 17.8 10.3 8.1 53 4.9 SE 37 52 20 28 1017.3 1017.2 0.0
27/07:00pm 17.8 9.7 7.2 50 5.3 SSE 39 50 21 27 1017.3 1017.2 0.0
27/06:30pm 19.3 11.2 7.1 45 6.2 SSE 39 50 21 27 1016.8 1016.7 0.0
27/06:00pm 20.1 12.5 7.5 44 6.4 SSE 37 48 20 26 1017.0 1016.9 0.0
27/05:30pm 21.1 13.4 7.0 40 7.2 SSE 37 50 20 27 1016.9 1016.8 0.0
27/05:13pm 20.8 12.9 6.0 38 7.4 SSE 37 56 20 30 1016.9 1016.8 0.0
27/05:00pm 21.2 14.0 5.9 37 7.7 SSE 33 46 18 25 1016.8 1016.7 0.0
27/04:46pm 21.7 14.6 6.4 37 7.8 SSE 33 56 18 30 1016.6 1016.5 0.0
27/04:30pm 21.9 14.5 6.6 37 7.8 SE 35 44 19 24 1016.6 1016.5 0.0
27/04:00pm 22.6 15.4 7.6 38 7.8 SSE 35 46 19 25 1016.7 1016.6 0.0
27/03:30pm 22.2 14.8 6.8 37 7.9 SSE 35 50 19 27 1016.6 1016.5 0.0
27/03:03pm 21.7 15.0 5.6 35 8.0 SSE 30 48 16 26 1016.8 1016.7 0.0
27/03:00pm 22.3 15.3 6.1 35 8.2 SSE 32 48 17 26 1016.8 1016.7 0.0
27/02:30pm 22.7 16.3 6.9 36 8.1 SSE 30 44 16 24 1017.0 1016.9 0.0
27/02:00pm 22.1 15.3 5.1 33 8.4 SE 30 43 16 23 1017.2 1017.1 0.0
27/01:30pm 23.0 17.2 6.3 34 8.5 SSE 26 44 14 24 1017.4 1017.3 0.0
27/01:00pm 20.5 14.8 8.2 45 6.4 SSE 28 41 15 22 1017.8 1017.7 0.0
27/12:30pm 20.1 14.3 8.1 46 6.2 SSE 28 37 15 20 1018.0 1017.9 0.0
27/12:00pm 19.1 14.1 8.1 49 5.7 SE 24 35 13 19 1018.4 1018.3 0.0
27/11:30am 19.2 14.2 8.2 49 5.7 SE 24 37 13 20 1018.4 1018.3 0.0
27/11:00am 19.2 14.3 8.5 50 5.6 SE 24 37 13 20 1018.5 1018.4 0.0
27/10:30am 18.6 13.4 8.8 53 5.1 ESE 26 35 14 19 1018.5 1018.4 0.0
27/10:00am 17.5 12.8 9.2 58 4.3 ESE 24 32 13 17 1018.6 1018.5 0.0
27/09:30am 18.8 14.6 11.1 61 4.2 SE 24 33 13 18 1018.6 1018.5 0.0
27/09:00am 17.0 11.8 8.7 58 4.3 SSE 26 32 14 17 1018.7 1018.6 0.0
27/08:30am 16.2 12.1 8.7 61 3.8 SSE 20 26 11 14 1018.6 1018.5 0.0
27/08:00am 15.7 11.9 8.9 64 3.5 SSE 19 24 10 13 1018.3 1018.2 0.0
27/07:30am 13.4 9.9 8.9 74 2.3 SSE 17 20 9 11 1018.1 1018.0 0.0
27/07:00am 11.6 7.5 7.9 78 1.8 SSE 19 19 10 10 1018.0 1017.9 0.0
27/06:30am 11.4 7.2 7.5 77 1.9 SSE 19 19 10 10 1017.7 1017.6 0.0
27/06:00am 11.8 7.7 7.9 77 1.9 SSE 19 20 10 11 1017.4 1017.3 0.0
27/05:30am 11.6 7.3 7.9 78 1.8 SE 20 22 11 12 1017.1 1017.0 0.0
27/05:00am 11.3 7.1 7.6 78 1.8 SSE 19 20 10 11 1017.0 1016.9 0.0
27/04:30am 11.3 6.9 7.4 77 1.9 SSE 20 20 11 11 1016.9 1016.8 0.0
27/04:00am 12.1 7.9 7.6 74 2.2 SE 19 20 10 11 1017.0 1016.9 0.0
27/03:30am 11.5 7.8 7.8 78 1.8 SE 17 19 9 10 1017.1 1017.0 0.0
27/03:00am 10.5 6.9 6.8 78 1.7 SSE 15 17 8 9 1017.3 1017.2 0.0
27/02:30am 11.2 7.6 6.9 75 2.0 SSE 15 17 8 9 1017.6 1017.5 0.0
27/02:00am 11.7 7.8 7.0 73 2.2 SSE 17 19 9 10 1017.6 1017.5 0.0
27/01:30am 11.7 7.7 6.8 72 2.3 SSE 17 20 9 11 1017.9 1017.8 0.0
27/01:00am 11.6 7.6 6.5 71 2.4 SSE 17 19 9 10 1018.2 1018.1 0.0
27/12:30am 12.1 7.7 6.6 69 2.6 SSE 19 20 10 11 1018.4 1018.3 0.0
27/12:00am 12.9 8.3 6.3 64 3.1 SSE 20 22 11 12 1018.5 1018.4 0.0
 
Date/Time
CDT
Temp
°C
App
Temp
°C
Dew
Point
Rel
Hum
%
Delta-T
°C
Wind Press
QNH
hPa
Press
MSL
hPa
Rain
since 9 am
mm
Dir
 
Spd
km/h
Gust
km/h
Spd
kts
Gust
kts
26/11:30pm 13.0 8.4 6.4 64 3.1 SSE 20 24 11 13 1018.6 1018.5 0.0
26/11:00pm 13.1 8.8 6.9 66 3.0 SSE 19 20 10 11 1018.7 1018.6 0.0
26/10:30pm 13.0 9.0 6.8 66 3.0 SSE 17 19 9 10 1018.9 1018.8 0.0
26/10:00pm 14.1 9.8 6.9 62 3.5 SSE 19 20 10 11 1018.7 1018.6 0.0
26/09:30pm 14.7 10.2 6.8 59 3.8 SSE 20 24 11 13 1018.5 1018.4 0.0
26/09:00pm 15.4 10.5 6.7 56 4.2 SSE 22 28 12 15 1018.3 1018.2 0.0
26/08:30pm 16.3 10.5 6.4 52 4.8 SSE 26 33 14 18 1018.0 1017.9 0.0
26/08:00pm 17.2 10.9 5.8 47 5.5 SSE 28 35 15 19 1017.8 1017.7 0.0
26/07:30pm 18.6 11.9 5.8 43 6.3 SSE 30 39 16 21 1017.5 1017.4 0.0
26/07:00pm 19.3 12.2 5.7 41 6.7 SSE 32 39 17 21 1017.3 1017.2 0.0
26/06:30pm 20.3 14.2 6.6 41 6.9 SSE 28 37 15 20 1017.0 1016.9 0.0
26/06:00pm 20.6 14.4 6.2 39 7.2 SSE 28 35 15 19 1016.8 1016.7 0.0
26/05:30pm 20.4 14.4 5.2 37 7.5 S 26 39 14 21 1016.8 1016.7 0.0
26/05:00pm 21.2 14.7 4.7 34 8.1 SSE 28 46 15 25 1016.9 1016.8 0.0
26/04:55pm 20.3 13.7 4.4 35 7.7 SSE 28 46 15 25 1016.8 1016.7 0.0
26/04:30pm 21.3 15.0 4.0 32 8.3 SSE 26 39 14 21 1016.8 1016.7 0.0
26/04:00pm 21.3 15.0 4.0 32 8.4 S 26 39 14 21 1016.9 1016.8 0.0
26/03:30pm 21.5 15.1 3.2 30 8.7 S 26 39 14 21 1016.9 1016.8 0.0
26/03:00pm 21.6 15.5 2.8 29 8.9 SSW 24 39 13 21 1017.0 1016.9 0.0
26/02:30pm 21.8 15.8 3.5 30 8.8 S 24 35 13 19 1017.3 1017.2 0.0
26/02:00pm 21.7 15.6 2.9 29 8.9 SSW 24 35 13 19 1017.3 1017.2 0.0
26/01:30pm 21.7 16.5 3.4 30 8.8 SSW 20 30 11 16 1017.5 1017.4 0.0
26/01:00pm 21.2 16.5 3.4 31 8.5 S 17 28 9 15 1017.7 1017.6 0.0
26/12:30pm 20.0 14.4 3.3 33 7.9 S 22 32 12 17 1017.9 1017.8 0.0
26/12:00pm 20.8 15.8 4.4 34 7.9 S 20 32 11 17 1018.0 1017.9 0.0
26/11:30am 20.3 15.0 5.1 37 7.4 S 22 35 12 19 1018.1 1018.0 0.0
26/11:00am 19.5 14.7 5.6 40 6.8 S 20 32 11 17 1018.3 1018.2 0.0

Other Formats:

Comma delimited format used in spreadsheet applications
http://www.bom.gov.au/fwo/IDS60801/IDS60801.95659.axf

JavaScript Object Notation format (JSON) in row-major order
http://www.bom.gov.au/fwo/IDS60801/IDS60801.95659.json